createdAt,value
2023-01-18T00:01:22.385Z,5.63
2023-01-18T00:03:50.469Z,7.17
2023-01-18T00:06:18.617Z,5.33
2023-01-18T00:08:46.716Z,6.83
2023-01-18T00:11:16.993Z,7.10
2023-01-18T00:13:46.419Z,6.43
2023-01-18T00:16:16.699Z,6.57
2023-01-18T00:18:45.140Z,5.57
2023-01-18T00:21:13.618Z,7.70
2023-01-18T00:23:42.009Z,8.40
2023-01-18T00:26:12.377Z,4.80
2023-01-18T00:28:41.413Z,7.37
2023-01-18T00:31:15.687Z,5.10
2023-01-18T00:33:44.549Z,6.83
2023-01-18T00:36:13.461Z,6.13
2023-01-18T00:38:41.606Z,7.17
2023-01-18T00:41:09.738Z,8.13
2023-01-18T00:43:40.238Z,7.37
2023-01-18T00:46:09.749Z,5.23
2023-01-18T00:48:40.206Z,6.27
2023-01-18T00:51:09.360Z,6.30
2023-01-18T00:53:38.534Z,7.03
2023-01-18T00:56:07.831Z,5.80
2023-01-18T00:58:37.298Z,8.17
2023-01-18T01:01:06.026Z,4.33
2023-01-18T01:03:54.291Z,7.10
2023-01-18T01:06:47.192Z,5.77
2023-01-18T01:09:18.488Z,7.73
2023-01-18T01:12:00.828Z,4.87
2023-01-18T01:14:46.458Z,6.17
2023-01-18T01:17:31.983Z,10.73
2023-01-18T01:20:17.581Z,6.53
2023-01-18T01:23:04.433Z,5.73
2023-01-18T01:25:49.937Z,7.53
2023-01-18T01:28:17.902Z,5.60
2023-01-18T01:30:45.870Z,7.23
2023-01-18T01:33:14.047Z,7.60
2023-01-18T01:35:41.991Z,6.03
2023-01-18T01:38:11.347Z,4.67
2023-01-18T01:40:39.302Z,5.33
2023-01-18T01:43:12.902Z,6.53
2023-01-18T01:45:41.156Z,4.73
2023-01-18T01:48:10.913Z,6.53
2023-01-18T01:50:40.999Z,5.90
2023-01-18T01:53:12.515Z,6.93
2023-01-18T01:55:41.185Z,4.90
2023-01-18T01:58:14.183Z,6.43
2023-01-18T02:00:42.489Z,7.93
2023-01-18T02:03:12.643Z,9.77
2023-01-18T02:05:44.773Z,4.73
2023-01-18T02:08:22.653Z,5.90
2023-01-18T02:10:51.150Z,6.63
2023-01-18T02:13:20.971Z,6.77
2023-01-18T02:15:59.636Z,8.23
2023-01-18T02:18:33.409Z,7.23
2023-01-18T02:21:17.848Z,6.97
2023-01-18T02:24:44.327Z,5.00
2023-01-18T02:27:22.287Z,7.27
2023-01-18T02:30:09.692Z,6.67
2023-01-18T02:32:51.417Z,5.97
2023-01-18T02:35:28.408Z,4.73
2023-01-18T02:38:06.532Z,5.90
2023-01-18T02:40:41.161Z,6.40
2023-01-18T02:43:29.082Z,6.30
2023-01-18T02:46:18.906Z,6.20
2023-01-18T02:48:50.566Z,7.37
2023-01-18T02:51:18.684Z,8.17
2023-01-18T02:53:48.896Z,5.53
2023-01-18T02:56:21.504Z,5.77
2023-01-18T02:58:53.717Z,6.37
2023-01-18T03:01:27.748Z,10.10
2023-01-18T03:04:00.357Z,8.27
2023-01-18T03:06:30.182Z,8.37
2023-01-18T03:08:59.997Z,6.00
2023-01-18T03:11:37.415Z,6.97
2023-01-18T03:14:14.748Z,5.67
2023-01-18T03:16:58.051Z,5.93
2023-01-18T03:19:52.259Z,4.57
2023-01-18T03:22:40.286Z,7.73
2023-01-18T03:25:13.546Z,6.03
2023-01-18T03:28:01.255Z,6.40
2023-01-18T03:30:48.479Z,7.57
2023-01-18T03:33:37.481Z,7.93
2023-01-18T03:36:09.792Z,7.27
2023-01-18T03:38:39.691Z,5.30
2023-01-18T03:41:08.639Z,4.13
2023-01-18T03:43:37.819Z,5.80
2023-01-18T03:46:08.052Z,5.00
2023-01-18T03:48:37.967Z,7.47
2023-01-18T03:51:13.172Z,6.50
2023-01-18T03:53:46.804Z,6.13
2023-01-18T03:56:20.557Z,4.97
2023-01-18T03:58:51.509Z,5.80
2023-01-18T04:01:20.208Z,6.10
2023-01-18T04:03:49.532Z,7.73
2023-01-18T04:06:17.499Z,5.20
2023-01-18T04:08:45.412Z,6.07
2023-01-18T04:11:13.721Z,6.70
2023-01-18T04:13:41.710Z,9.17
2023-01-18T04:16:09.931Z,7.93
2023-01-18T04:18:38.447Z,5.70
2023-01-18T04:21:08.006Z,6.93
2023-01-18T04:23:35.945Z,4.87
2023-01-18T04:26:03.964Z,4.40
2023-01-18T04:28:34.009Z,6.97
2023-01-18T04:31:02.171Z,5.30
2023-01-18T04:33:30.147Z,4.97
2023-01-18T04:35:58.155Z,7.70
2023-01-18T04:38:28.301Z,6.23
2023-01-18T04:40:59.085Z,5.67
2023-01-18T04:43:27.022Z,5.97
2023-01-18T04:45:55.787Z,4.53
2023-01-18T04:48:24.264Z,4.80
2023-01-18T04:50:52.536Z,5.10
2023-01-18T04:53:22.686Z,4.33
2023-01-18T04:55:52.148Z,5.30
2023-01-18T04:58:20.117Z,7.57
2023-01-18T05:00:48.078Z,5.20
2023-01-18T05:03:16.192Z,7.27
2023-01-18T05:05:44.153Z,4.43
2023-01-18T05:08:12.112Z,7.03
2023-01-18T05:10:40.021Z,4.40
2023-01-18T05:13:09.304Z,5.37
2023-01-18T05:15:37.262Z,5.60
2023-01-18T05:18:06.309Z,5.07
2023-01-18T05:20:34.233Z,9.50
2023-01-18T05:23:10.485Z,5.30
2023-01-18T05:25:39.798Z,3.90
2023-01-18T05:28:10.074Z,7.60
2023-01-18T05:30:40.393Z,5.80
2023-01-18T05:33:08.429Z,6.93
2023-01-18T05:35:38.151Z,9.20
2023-01-18T05:38:06.190Z,4.57
2023-01-18T05:40:34.161Z,5.83
2023-01-18T05:43:02.032Z,6.20
2023-01-18T05:45:31.657Z,6.80
2023-01-18T05:47:59.799Z,6.13
2023-01-18T05:50:27.922Z,7.37
2023-01-18T05:52:58.112Z,3.40
2023-01-18T05:55:26.415Z,6.40
2023-01-18T05:57:54.580Z,8.00
2023-01-18T06:00:23.405Z,5.87
2023-01-18T06:02:54.315Z,7.13
2023-01-18T06:05:22.902Z,7.87
2023-01-18T06:07:50.937Z,6.50
2023-01-18T06:10:20.128Z,4.70
2023-01-18T06:12:48.277Z,4.93
2023-01-18T06:15:17.122Z,4.63
2023-01-18T06:17:46.795Z,5.90
2023-01-18T06:20:16.696Z,7.40
2023-01-18T06:22:45.555Z,5.93
2023-01-18T06:25:13.663Z,5.00
2023-01-18T06:27:42.126Z,6.23
2023-01-18T06:30:11.931Z,5.30
2023-01-18T06:32:39.986Z,5.80
2023-01-18T06:35:08.732Z,6.03
2023-01-18T06:37:38.067Z,3.90
2023-01-18T06:40:07.705Z,5.67
2023-01-18T06:42:35.615Z,5.27
2023-01-18T06:45:03.589Z,4.67
2023-01-18T06:47:31.702Z,7.47
2023-01-18T06:49:59.676Z,4.33
2023-01-18T06:52:27.709Z,4.23
2023-01-18T06:54:57.010Z,3.53
2023-01-18T06:57:24.993Z,3.77
2023-01-18T06:59:53.391Z,4.40
2023-01-18T07:02:21.864Z,5.00
2023-01-18T07:04:49.877Z,5.37
2023-01-18T07:07:17.853Z,5.33
2023-01-18T07:09:45.901Z,5.97
2023-01-18T07:12:15.543Z,4.77
2023-01-18T07:14:43.501Z,4.53
2023-01-18T07:17:11.659Z,6.17
2023-01-18T07:19:39.814Z,5.13
2023-01-18T07:22:07.932Z,5.17
2023-01-18T07:24:35.871Z,3.43
2023-01-18T07:27:04.141Z,4.53
2023-01-18T07:29:33.418Z,4.87
2023-01-18T07:32:02.487Z,5.80
2023-01-18T07:34:30.770Z,6.63
2023-01-18T07:36:59.031Z,3.00
2023-01-18T07:39:26.990Z,5.20
2023-01-18T07:41:54.983Z,2.57
2023-01-18T07:44:23.216Z,5.43
2023-01-18T07:46:52.868Z,4.77
2023-01-18T07:49:20.865Z,3.03
2023-01-18T07:51:49.013Z,6.43
2023-01-18T07:54:20.124Z,4.93
2023-01-18T07:56:48.316Z,4.47
2023-01-18T07:59:17.242Z,6.20
2023-01-18T08:01:45.445Z,7.27
2023-01-18T08:04:15.177Z,9.53
2023-01-18T08:06:46.206Z,5.37
2023-01-18T08:09:14.651Z,5.17
2023-01-18T08:11:44.452Z,8.07
2023-01-18T08:14:15.459Z,8.07
2023-01-18T08:16:44.795Z,6.27
2023-01-18T08:19:14.480Z,5.83
2023-01-18T08:21:42.505Z,3.33
2023-01-18T08:24:10.393Z,5.83
2023-01-18T08:26:38.318Z,5.03
2023-01-18T08:29:06.303Z,7.63
2023-01-18T08:31:55.433Z,6.20
2023-01-18T08:34:24.789Z,8.00
2023-01-18T08:36:52.648Z,8.80
2023-01-18T08:39:20.568Z,7.40
2023-01-18T08:41:49.582Z,6.70
2023-01-18T08:44:17.507Z,5.90
2023-01-18T08:46:46.868Z,5.67
2023-01-18T08:49:15.128Z,5.40
2023-01-18T08:51:44.463Z,5.60
2023-01-18T08:54:12.433Z,7.83
2023-01-18T08:56:40.335Z,5.90
2023-01-18T08:59:09.965Z,4.93
2023-01-18T09:01:38.009Z,9.73
2023-01-18T09:04:06.059Z,4.67
2023-01-18T09:06:34.171Z,5.63
2023-01-18T09:09:03.569Z,5.87
2023-01-18T09:11:31.578Z,5.47
2023-01-18T09:14:02.135Z,4.77
2023-01-18T09:16:31.665Z,4.23
2023-01-18T09:19:00.375Z,3.87
2023-01-18T09:21:29.590Z,5.17
2023-01-18T09:23:57.919Z,5.17
2023-01-18T09:26:27.840Z,4.00
2023-01-18T09:28:56.497Z,4.80
2023-01-18T09:31:27.015Z,5.30
2023-01-18T09:34:06.355Z,4.20
2023-01-18T09:36:45.597Z,4.77
2023-01-18T09:39:13.589Z,6.23
2023-01-18T09:41:47.048Z,5.13
2023-01-18T09:44:23.025Z,4.97
2023-01-18T09:46:55.528Z,8.00
2023-01-18T09:49:30.600Z,4.00
2023-01-18T09:52:30.219Z,8.33
2023-01-18T09:55:04.828Z,4.50
2023-01-18T09:57:44.763Z,8.97
2023-01-18T10:00:21.630Z,7.53
2023-01-18T10:02:53.533Z,5.13
2023-01-18T10:05:25.678Z,7.07
2023-01-18T10:08:05.123Z,6.20
2023-01-18T10:10:39.131Z,8.20
2023-01-18T10:13:46.170Z,6.37
2023-01-18T10:16:15.827Z,4.10
2023-01-18T10:18:46.676Z,5.73
2023-01-18T10:21:23.689Z,6.90
2023-01-18T10:24:06.572Z,4.07
2023-01-18T10:26:38.987Z,6.73
2023-01-18T10:29:17.737Z,6.17
2023-01-18T10:31:56.562Z,6.77
2023-01-18T10:34:29.692Z,5.67
2023-01-18T10:37:04.323Z,11.03
2023-01-18T10:39:38.385Z,5.83
2023-01-18T10:42:20.449Z,11.17
2023-01-18T10:44:49.901Z,6.03
2023-01-18T10:47:19.416Z,8.60
2023-01-18T10:49:50.402Z,9.40
2023-01-18T10:52:27.177Z,11.70
2023-01-18T10:55:01.565Z,13.73
2023-01-18T10:57:31.865Z,12.37
2023-01-18T11:00:01.784Z,7.97
2023-01-18T11:02:32.576Z,11.53
2023-01-18T11:05:06.334Z,11.37
2023-01-18T11:07:34.343Z,10.03
2023-01-18T11:10:09.523Z,9.80
2023-01-18T11:12:44.338Z,17.97
2023-01-18T11:15:27.440Z,16.77
2023-01-18T11:18:15.663Z,16.07
2023-01-18T11:20:49.882Z,14.00
2023-01-18T11:23:23.305Z,12.97
2023-01-18T11:25:57.962Z,15.33
2023-01-18T11:28:30.326Z,11.77
2023-01-18T11:31:07.971Z,17.70
2023-01-18T11:33:49.458Z,17.17
2023-01-18T11:36:19.138Z,12.73
2023-01-18T11:38:47.698Z,13.33
2023-01-18T11:41:19.406Z,13.07
2023-01-18T11:44:02.346Z,15.47
2023-01-18T11:46:41.405Z,12.53
2023-01-18T11:49:20.054Z,13.02
2023-01-18T11:51:53.137Z,13.23
2023-01-18T11:54:28.523Z,14.70
2023-01-18T11:57:05.361Z,17.53
2023-01-18T11:59:36.849Z,15.80
2023-01-18T12:02:31.039Z,14.82
2023-01-18T12:05:36.815Z,13.50
2023-01-18T12:08:22.454Z,11.67
2023-01-18T12:11:04.552Z,12.27
2023-01-18T12:13:38.077Z,15.70
2023-01-18T12:16:21.020Z,11.70
2023-01-18T12:19:21.832Z,13.20
2023-01-18T12:22:03.627Z,12.97
2023-01-18T12:24:45.864Z,12.53
2023-01-18T12:27:21.968Z,12.95
2023-01-18T12:30:14.801Z,9.43
2023-01-18T12:33:02.183Z,13.40
2023-01-18T12:35:49.429Z,15.10
2023-01-18T12:38:23.170Z,9.80
2023-01-18T12:41:12.489Z,13.43
2023-01-18T12:43:55.713Z,13.13
2023-01-18T12:46:30.255Z,13.87
2023-01-18T12:49:03.415Z,16.47
2023-01-18T12:51:36.670Z,11.50
2023-01-18T12:54:12.623Z,10.77
2023-01-18T12:56:44.166Z,11.23
2023-01-18T12:59:21.916Z,13.63
2023-01-18T13:01:55.996Z,14.50
2023-01-18T13:04:28.824Z,15.73
2023-01-18T13:07:00.843Z,14.03
2023-01-18T13:09:40.211Z,14.30
2023-01-18T13:12:09.183Z,13.87
2023-01-18T13:14:43.650Z,11.68
2023-01-18T13:17:18.038Z,12.37
2023-01-18T13:19:54.673Z,11.73
2023-01-18T13:22:31.642Z,10.23
2023-01-18T13:25:25.067Z,11.90
2023-01-18T13:28:01.835Z,17.90
2023-01-18T13:30:31.879Z,12.60
2023-01-18T13:33:00.601Z,11.83
2023-01-18T13:35:33.630Z,13.00
2023-01-18T13:38:11.021Z,11.50
2023-01-18T13:40:41.040Z,12.73
2023-01-18T13:43:35.549Z,10.53
2023-01-18T13:46:17.925Z,12.33
2023-01-18T13:48:52.735Z,12.93
2023-01-18T13:51:56.009Z,9.50
2023-01-18T13:55:02.233Z,17.57
2023-01-18T13:57:32.885Z,11.70
2023-01-18T14:00:02.303Z,11.97
2023-01-18T14:02:34.103Z,11.50
2023-01-18T14:05:09.443Z,12.90
2023-01-18T14:07:41.759Z,9.90
2023-01-18T14:10:26.747Z,14.87
2023-01-18T14:12:56.485Z,15.23
2023-01-18T14:15:31.637Z,13.00
2023-01-18T14:18:00.155Z,11.80
2023-01-18T14:20:49.697Z,11.13
2023-01-18T14:23:31.937Z,13.13
2023-01-18T14:26:03.634Z,10.10
2023-01-18T14:28:36.629Z,11.67
2023-01-18T14:31:07.442Z,11.23
2023-01-18T14:33:38.141Z,18.13
2023-01-18T14:36:08.476Z,13.47
2023-01-18T14:38:37.094Z,19.10
2023-01-18T14:41:09.867Z,29.60
2023-01-18T14:43:43.236Z,13.97
2023-01-18T14:46:16.011Z,14.87
2023-01-18T14:48:51.471Z,17.03
2023-01-18T14:51:22.224Z,11.50
2023-01-18T14:53:54.492Z,11.60
2023-01-18T14:56:29.003Z,11.70
2023-01-18T14:58:59.011Z,12.07
2023-01-18T15:01:29.936Z,10.80
2023-01-18T15:04:00.151Z,7.77
2023-01-18T15:06:35.861Z,8.87
2023-01-18T15:09:07.081Z,10.73
2023-01-18T15:11:38.360Z,10.40
2023-01-18T15:14:11.264Z,7.27
2023-01-18T15:16:40.152Z,9.77
2023-01-18T15:19:16.841Z,8.50
2023-01-18T15:21:45.926Z,7.93
2023-01-18T15:24:18.126Z,7.13
2023-01-18T15:26:52.369Z,7.00
2023-01-18T15:29:25.036Z,9.03
2023-01-18T15:31:56.069Z,10.57
2023-01-18T15:34:31.181Z,8.57
2023-01-18T15:37:01.585Z,9.70
2023-01-18T15:39:29.889Z,8.93
2023-01-18T15:42:05.206Z,11.00
2023-01-18T15:44:40.679Z,10.33
2023-01-18T15:47:17.210Z,12.93
2023-01-18T15:49:50.539Z,12.33
2023-01-18T15:52:36.300Z,11.63
2023-01-18T15:55:06.587Z,11.30
2023-01-18T15:57:37.342Z,14.00
2023-01-18T16:00:07.026Z,13.60
2023-01-18T16:02:35.153Z,12.07
2023-01-18T16:05:20.696Z,12.83
2023-01-18T16:07:51.538Z,13.67
2023-01-18T16:10:33.451Z,11.63
2023-01-18T16:13:30.616Z,10.50
2023-01-18T16:16:15.637Z,12.73
2023-01-18T16:18:45.756Z,9.23
2023-01-18T16:21:21.041Z,10.47
2023-01-18T16:23:50.901Z,12.80
2023-01-18T16:26:23.079Z,13.37
2023-01-18T16:28:53.537Z,16.73
2023-01-18T16:31:23.155Z,20.40
2023-01-18T16:33:51.718Z,18.23
2023-01-18T16:36:20.707Z,23.00
2023-01-18T16:38:48.705Z,23.07
2023-01-18T16:41:17.028Z,26.60
2023-01-18T16:43:45.005Z,25.87
2023-01-18T16:46:14.319Z,30.93
2023-01-18T16:48:42.320Z,29.23
2023-01-18T16:51:18.635Z,25.87
2023-01-18T16:53:49.419Z,26.07
2023-01-18T16:56:17.722Z,24.13
2023-01-18T16:58:45.632Z,23.87
2023-01-18T17:01:21.005Z,30.77
2023-01-18T17:03:50.889Z,39.10
2023-01-18T17:06:21.979Z,37.93
2023-01-18T17:08:50.717Z,35.17
2023-01-18T17:11:18.772Z,43.33
2023-01-18T17:13:47.706Z,31.57
2023-01-18T17:16:19.029Z,36.47
2023-01-18T17:18:47.982Z,27.67
2023-01-18T17:21:17.709Z,29.20
2023-01-18T17:23:45.642Z,25.27
2023-01-18T17:26:16.672Z,21.93
2023-01-18T17:28:45.242Z,26.17
2023-01-18T17:31:13.349Z,30.77
2023-01-18T17:33:43.729Z,20.07
2023-01-18T17:36:11.715Z,18.27
2023-01-18T17:38:41.414Z,13.63
2023-01-18T17:41:22.937Z,12.03
2023-01-18T17:43:54.984Z,16.57
2023-01-18T17:46:23.000Z,15.73
2023-01-18T17:48:52.326Z,17.90
2023-01-18T17:51:20.979Z,15.90
2023-01-18T17:53:48.904Z,17.53
2023-01-18T17:56:18.164Z,20.10
2023-01-18T17:58:47.066Z,37.30
2023-01-18T18:01:17.902Z,18.80
2023-01-18T18:03:48.285Z,21.53
2023-01-18T18:06:30.077Z,19.67
2023-01-18T18:08:58.653Z,19.00
2023-01-18T18:11:26.884Z,21.83
2023-01-18T18:13:56.782Z,27.27
2023-01-18T18:16:25.702Z,23.87
2023-01-18T18:18:53.979Z,35.07
2023-01-18T18:21:26.210Z,34.67
2023-01-18T18:23:54.429Z,25.83
2023-01-18T18:26:24.462Z,21.00
2023-01-18T18:28:52.505Z,21.30
2023-01-18T18:31:20.832Z,19.67
2023-01-18T18:33:48.802Z,19.53
2023-01-18T18:36:16.916Z,21.00
2023-01-18T18:38:48.939Z,21.67
2023-01-18T18:41:17.181Z,22.27
2023-01-18T18:43:45.113Z,21.27
2023-01-18T18:46:15.778Z,19.63
2023-01-18T18:48:43.871Z,18.70
2023-01-18T18:51:12.044Z,15.73
2023-01-18T18:53:40.521Z,16.60
2023-01-18T18:56:10.717Z,19.83
2023-01-18T18:58:39.071Z,16.20
2023-01-18T19:01:08.116Z,16.47
2023-01-18T19:03:36.798Z,20.03
2023-01-18T19:06:04.971Z,18.87
2023-01-18T19:08:32.991Z,22.40
2023-01-18T19:11:01.078Z,19.53
2023-01-18T19:13:30.595Z,17.83
2023-01-18T19:16:00.504Z,20.77
2023-01-18T19:18:29.054Z,18.73
2023-01-18T19:20:57.095Z,20.97
2023-01-18T19:23:25.737Z,19.50
2023-01-18T19:25:53.863Z,18.93
2023-01-18T19:28:21.995Z,17.80
2023-01-18T19:30:54.407Z,20.40
2023-01-18T19:33:22.364Z,21.13
2023-01-18T19:35:50.257Z,21.50
2023-01-18T19:38:18.426Z,17.83
2023-01-18T19:40:46.372Z,17.80
2023-01-18T19:43:14.371Z,20.30
2023-01-18T19:45:42.258Z,17.13
2023-01-18T19:48:11.941Z,24.00
2023-01-18T19:50:38.715Z,21.67
2023-01-18T19:53:06.688Z,22.70
2023-01-18T19:55:36.475Z,23.90
2023-01-18T19:58:04.636Z,25.57
2023-01-18T20:00:35.751Z,28.00
2023-01-18T20:03:04.156Z,27.30
2023-01-18T20:05:33.879Z,31.07
2023-01-18T20:08:01.800Z,28.60
2023-01-18T20:10:33.480Z,26.77
2023-01-18T20:13:03.951Z,22.77
2023-01-18T20:15:31.964Z,24.47
2023-01-18T20:17:59.897Z,24.57
2023-01-18T20:20:32.866Z,25.13
2023-01-18T20:23:04.322Z,22.80
2023-01-18T20:25:33.419Z,23.00
2023-01-18T20:28:01.603Z,27.30
2023-01-18T20:30:29.611Z,28.93
2023-01-18T20:32:57.972Z,25.07
2023-01-18T20:35:27.488Z,24.20
2023-01-18T20:37:55.556Z,22.27
2023-01-18T20:40:24.896Z,30.93
2023-01-18T20:42:52.898Z,26.00
2023-01-18T20:45:21.365Z,23.27
2023-01-18T20:47:49.438Z,22.23
2023-01-18T20:50:18.963Z,20.83
2023-01-18T20:52:47.340Z,21.87
2023-01-18T20:55:16.583Z,22.13
2023-01-18T20:57:46.266Z,19.20
2023-01-18T21:00:15.134Z,20.80
2023-01-18T21:02:43.306Z,20.57
2023-01-18T21:05:11.753Z,22.10
2023-01-18T21:07:41.602Z,21.57
2023-01-18T21:10:12.182Z,18.20
2023-01-18T21:12:41.447Z,18.27
2023-01-18T21:15:11.829Z,17.87
2023-01-18T21:17:40.139Z,15.87
2023-01-18T21:20:09.533Z,16.00
2023-01-18T21:22:37.525Z,19.20
2023-01-18T21:25:05.781Z,18.00
2023-01-18T21:27:38.475Z,16.23
2023-01-18T21:30:07.827Z,18.57
2023-01-18T21:32:37.419Z,19.07
2023-01-18T21:35:06.077Z,16.37
2023-01-18T21:37:34.058Z,17.53
2023-01-18T21:40:02.529Z,19.67
2023-01-18T21:42:48.107Z,15.90
2023-01-18T21:45:35.081Z,18.57
2023-01-18T21:48:08.527Z,17.93
2023-01-18T21:53:19.375Z,19.23
2023-01-18T21:56:13.140Z,17.20
2023-01-18T21:58:58.052Z,18.07
2023-01-18T22:01:27.800Z,20.50
2023-01-18T22:04:16.575Z,19.37
2023-01-18T22:06:44.548Z,19.67
2023-01-18T22:09:14.901Z,19.03
2023-01-18T22:11:46.131Z,17.60
2023-01-18T22:14:14.673Z,19.77
2023-01-18T22:16:42.694Z,20.43
2023-01-18T22:19:13.200Z,19.93
2023-01-18T22:21:43.388Z,18.80
2023-01-18T22:24:12.806Z,19.33
2023-01-18T22:26:41.172Z,19.07
2023-01-18T22:29:09.703Z,22.30
2023-01-18T22:31:38.167Z,23.53
2023-01-18T22:34:08.225Z,19.53
2023-01-18T22:36:37.565Z,18.20
2023-01-18T22:39:05.605Z,20.90
2023-01-18T22:41:36.283Z,21.90
2023-01-18T22:44:06.230Z,19.63
2023-01-18T22:46:36.169Z,18.77
2023-01-18T22:49:18.219Z,20.33
2023-01-18T22:52:04.763Z,19.07
2023-01-18T22:54:36.275Z,17.50
2023-01-18T22:57:04.172Z,21.90
2023-01-18T22:59:32.157Z,22.13
2023-01-18T23:02:01.787Z,22.83
2023-01-18T23:04:31.364Z,22.03
2023-01-18T23:07:00.812Z,23.27
2023-01-18T23:09:29.358Z,21.70
2023-01-18T23:11:57.505Z,21.00
2023-01-18T23:14:44.500Z,19.77
2023-01-18T23:17:37.619Z,17.23
2023-01-18T23:20:06.819Z,19.70
2023-01-18T23:22:36.254Z,23.53
2023-01-18T23:25:10.243Z,20.50
2023-01-18T23:27:39.208Z,19.47
2023-01-18T23:30:10.360Z,16.47
2023-01-18T23:32:40.188Z,17.97
2023-01-18T23:35:08.902Z,18.73
2023-01-18T23:37:38.300Z,17.37
2023-01-18T23:40:25.620Z,19.03
2023-01-18T23:43:13.681Z,19.80
2023-01-18T23:46:01.395Z,18.50
2023-01-18T23:48:48.401Z,18.63
2023-01-18T23:51:34.030Z,21.00
2023-01-18T23:54:18.734Z,20.63
2023-01-18T23:56:48.649Z,19.83
2023-01-18T23:59:19.744Z,19.63
